Time;durP1;ratioP1;P1;durP2;ratioP2;P2;SDS_P1;SDS_P2;PMS_P1;PMS_P2;Temp;Humidity;BMP_temperature;BMP_pressure;BME280_temperature;BME280_humidity;BME280_pressure;Samples;Min_cycle;Max_cycle;Signal;HPM_P1;HPM_P2
2024/01/06 00:02:40;;;;;;;8.97;7.97;;;10.20;41.40;;;;;;10352377;28;20258;-74
2024/01/06 00:07:44;;;;;;;8.77;7.80;;;10.30;41.80;;;;;;10357656;28;20253;-74
2024/01/06 00:12:48;;;;;;;8.60;7.70;;;10.30;41.50;;;;;;10352774;28;20240;-75
2024/01/06 00:17:53;;;;;;;7.90;7.10;;;10.30;41.60;;;;;;10353250;28;20234;-74
2024/01/06 00:22:58;;;;;;;8.53;7.73;;;10.30;41.70;;;;;;10344134;28;20254;-74
2024/01/06 00:28:02;;;;;;;6.73;6.13;;;10.30;41.60;;;;;;10337315;28;20242;-74
2024/01/06 00:33:06;;;;;;;7.73;7.00;;;10.30;41.60;;;;;;10354097;28;20231;-74
2024/01/06 00:38:10;;;;;;;7.57;6.80;;;10.30;41.80;;;;;;10351870;28;20318;-74
2024/01/06 00:43:13;;;;;;;9.50;8.57;;;10.30;41.60;;;;;;10357330;28;20253;-74
2024/01/06 00:48:17;;;;;;;9.00;8.13;;;10.30;41.60;;;;;;10354927;28;20748;-74
2024/01/06 00:53:20;;;;;;;7.93;7.20;;;10.20;41.90;;;;;;10357734;28;20736;-74
2024/01/06 00:58:24;;;;;;;7.70;7.00;;;10.20;41.70;;;;;;10356149;28;20236;-74
2024/01/06 01:03:28;;;;;;;6.87;6.27;;;10.20;41.90;;;;;;10343447;28;20321;-74
2024/01/06 01:08:32;;;;;;;7.13;6.53;;;10.20;42.30;;;;;;10349653;28;20345;-74
2024/01/06 01:13:35;;;;;;;7.27;6.57;;;10.20;42.00;;;;;;10355252;28;20240;-74
2024/01/06 01:18:40;;;;;;;7.27;6.67;;;10.20;42.10;;;;;;10353961;28;20231;-74
2024/01/06 01:23:43;;;;;;;7.60;7.00;;;10.20;42.30;;;;;;10352472;28;20254;-74
2024/01/06 01:28:46;;;;;;;7.37;6.70;;;10.20;42.10;;;;;;10353289;28;20341;-74
2024/01/06 01:33:51;;;;;;;7.10;6.50;;;10.20;42.00;;;;;;10352165;28;20230;-74
2024/01/06 01:38:54;;;;;;;5.00;4.60;;;10.20;42.30;;;;;;10351106;28;20238;-74
2024/01/06 01:43:58;;;;;;;6.60;6.07;;;10.30;42.00;;;;;;10352130;28;20280;-74
2024/01/06 01:49:04;;;;;;;7.07;6.47;;;10.30;42.10;;;;;;10356066;28;20253;-74
2024/01/06 01:54:08;;;;;;;6.57;6.07;;;10.30;42.40;;;;;;10350356;28;20249;-74
2024/01/06 01:59:13;;;;;;;7.80;7.10;;;10.30;42.00;;;;;;10349271;28;20237;-74
2024/01/06 02:04:17;;;;;;;6.20;5.60;;;10.30;42.30;;;;;;10350734;28;20230;-74
2024/01/06 02:09:23;;;;;;;7.00;6.37;;;10.30;42.30;;;;;;10348804;28;20706;-74
2024/01/06 02:14:26;;;;;;;7.60;6.90;;;10.30;42.00;;;;;;10343350;28;20226;-74
2024/01/06 02:19:30;;;;;;;6.60;6.10;;;10.30;42.20;;;;;;10350384;28;20320;-74
2024/01/06 02:24:35;;;;;;;5.57;5.17;;;10.30;42.30;;;;;;10350932;28;20259;-74
2024/01/06 02:29:38;;;;;;;4.80;4.40;;;10.20;42.50;;;;;;10346812;28;20243;-74
2024/01/06 02:34:42;;;;;;;5.40;5.00;;;10.20;42.40;;;;;;10351847;28;20233;-74
2024/01/06 02:39:47;;;;;;;5.60;5.10;;;10.20;42.40;;;;;;10346219;28;20316;-74
2024/01/06 02:44:50;;;;;;;5.57;5.17;;;10.20;42.80;;;;;;10349862;28;20321;-74
2024/01/06 02:49:54;;;;;;;6.40;5.90;;;10.20;42.50;;;;;;10349500;28;20234;-74
2024/01/06 02:55:00;;;;;;;6.67;6.17;;;10.20;42.50;;;;;;10349171;28;20744;-74
2024/01/06 03:00:04;;;;;;;7.13;6.63;;;10.20;42.80;;;;;;10354686;28;20252;-74
2024/01/06 03:05:08;;;;;;;7.20;6.60;;;10.10;42.30;;;;;;10349886;28;20688;-74
2024/01/06 03:10:13;;;;;;;7.27;6.67;;;10.10;42.30;;;;;;10352867;28;20238;-74
2024/01/06 03:15:16;;;;;;;8.27;7.57;;;10.00;42.60;;;;;;10350905;28;20241;-74
2024/01/06 03:20:20;;;;;;;9.23;8.43;;;10.00;42.50;;;;;;10350579;28;20241;-74
2024/01/06 03:25:24;;;;;;;9.70;8.93;;;9.90;43.50;;;;;;10349324;28;20655;-74
2024/01/06 03:30:27;;;;;;;9.17;8.40;;;9.80;44.00;;;;;;10350207;28;20317;-74
2024/01/06 03:35:31;;;;;;;8.53;7.83;;;9.70;43.80;;;;;;10349148;28;20234;-74
2024/01/06 03:40:35;;;;;;;7.27;6.63;;;9.70;43.90;;;;;;10350637;28;20240;-74
2024/01/06 03:45:38;;;;;;;9.10;8.30;;;9.60;44.30;;;;;;10344259;28;20709;-74
2024/01/06 03:50:41;;;;;;;9.27;8.47;;;9.60;44.10;;;;;;10343830;28;20277;-74
2024/01/06 03:55:46;;;;;;;8.07;7.37;;;9.50;44.30;;;;;;10350006;28;20326;-74
2024/01/06 04:00:49;;;;;;;7.10;6.40;;;9.50;44.50;;;;;;10344388;28;20238;-74
2024/01/06 04:05:52;;;;;;;6.27;5.40;;;9.50;44.30;;;;;;10350031;28;20240;-74
2024/01/06 04:10:57;;;;;;;6.97;5.57;;;9.40;44.10;;;;;;10351226;28;20235;-74
2024/01/06 04:16:00;;;;;;;6.83;5.30;;;9.40;44.50;;;;;;10358451;28;20244;-74
2024/01/06 04:21:04;;;;;;;6.00;5.50;;;9.30;44.30;;;;;;10352028;28;20268;-74
2024/01/06 04:26:09;;;;;;;5.93;5.33;;;9.30;44.30;;;;;;10353545;28;20258;-74
2024/01/06 04:31:12;;;;;;;5.83;5.17;;;9.30;44.60;;;;;;10357516;28;20244;-74
2024/01/06 04:36:16;;;;;;;5.00;4.50;;;9.30;44.20;;;;;;10356742;28;20235;-74
2024/01/06 04:41:20;;;;;;;5.23;4.73;;;9.30;44.10;;;;;;10354862;28;20250;-74
2024/01/06 04:46:23;;;;;;;5.90;5.40;;;9.20;44.30;;;;;;10355524;28;20236;-74
2024/01/06 04:51:27;;;;;;;6.87;6.13;;;9.20;44.10;;;;;;10350463;28;20735;-74
2024/01/06 04:56:31;;;;;;;6.80;6.17;;;9.20;44.30;;;;;;10351680;28;20648;-74
2024/01/06 05:01:38;;;;;;;6.10;5.50;;;9.20;44.60;;;;;;10352399;28;20799;-74
2024/01/06 05:06:42;;;;;;;7.37;5.00;;;9.20;44.20;;;;;;10347808;28;20883;-74
2024/01/06 05:11:46;;;;;;;4.60;3.83;;;9.10;44.10;;;;;;10346160;28;20244;-74
2024/01/06 05:16:49;;;;;;;5.00;4.07;;;9.10;44.30;;;;;;10351568;28;20301;-74
2024/01/06 05:21:53;;;;;;;3.90;3.00;;;9.10;44.10;;;;;;10353491;28;20245;-74
2024/01/06 05:26:58;;;;;;;3.17;2.80;;;9.00;43.90;;;;;;10354526;28;20226;-74
2024/01/06 05:32:01;;;;;;;3.57;2.80;;;9.00;44.10;;;;;;10352751;28;20329;-74
2024/01/06 05:37:04;;;;;;;3.60;2.67;;;9.00;43.90;;;;;;10343808;28;20249;-74
2024/01/06 05:42:11;;;;;;;3.27;2.70;;;9.00;43.90;;;;;;10349954;28;20236;-74
2024/01/06 05:47:14;;;;;;;3.27;2.73;;;9.00;44.20;;;;;;10353691;28;20215;-74
2024/01/06 05:52:18;;;;;;;3.27;2.60;;;9.10;44.00;;;;;;10347894;28;20282;-74
2024/01/06 05:57:22;;;;;;;3.07;2.40;;;9.10;43.80;;;;;;10356375;28;20230;-74
2024/01/06 06:02:25;;;;;;;3.27;2.40;;;9.10;44.10;;;;;;10351933;28;20312;-74
2024/01/06 06:07:29;;;;;;;4.27;2.97;;;9.20;43.90;;;;;;10352623;28;20237;-74
2024/01/06 06:12:33;;;;;;;3.63;2.70;;;9.30;43.90;;;;;;10347986;28;20666;-74
2024/01/06 06:17:36;;;;;;;3.43;2.40;;;9.30;44.00;;;;;;10348889;28;20231;-74
2024/01/06 06:22:40;;;;;;;3.73;2.40;;;9.30;43.80;;;;;;10349321;28;20230;-74
2024/01/06 06:27:44;;;;;;;2.60;2.20;;;9.40;43.80;;;;;;10348935;28;20218;-74
2024/01/06 06:32:47;;;;;;;3.37;2.60;;;9.40;43.80;;;;;;10348772;28;20230;-74
2024/01/06 06:37:51;;;;;;;3.57;2.07;;;9.40;43.60;;;;;;10347541;28;20231;-74
2024/01/06 06:42:55;;;;;;;3.70;2.47;;;9.30;43.50;;;;;;10347721;28;20250;-74
2024/01/06 06:47:58;;;;;;;4.77;3.13;;;9.30;43.70;;;;;;10348994;28;20228;-74
2024/01/06 06:53:02;;;;;;;3.23;2.70;;;9.30;43.60;;;;;;10350710;28;20740;-74
2024/01/06 06:58:06;;;;;;;4.13;3.17;;;9.20;43.60;;;;;;10349857;28;20262;-73
2024/01/06 07:03:09;;;;;;;3.87;2.80;;;9.20;43.90;;;;;;10345626;28;20727;-74
2024/01/06 07:08:14;;;;;;;2.80;2.60;;;9.20;43.70;;;;;;10350096;28;20602;-74
2024/01/06 07:13:19;;;;;;;5.33;3.07;;;9.20;43.70;;;;;;10344803;28;20257;-74
2024/01/06 07:18:24;;;;;;;3.93;3.17;;;9.30;43.80;;;;;;10348040;28;20701;-74
2024/01/06 07:23:28;;;;;;;3.50;2.97;;;9.30;43.70;;;;;;10348216;28;20242;-74
2024/01/06 07:28:32;;;;;;;5.00;4.40;;;9.20;43.60;;;;;;10342305;28;20240;-74
2024/01/06 07:33:35;;;;;;;4.73;4.23;;;9.20;43.80;;;;;;10349575;28;20728;-74
2024/01/06 07:38:39;;;;;;;5.37;3.27;;;9.10;43.60;;;;;;10340796;28;21022;-74
2024/01/06 07:43:43;;;;;;;5.37;4.30;;;9.10;43.80;;;;;;10354605;28;20229;-74
2024/01/06 07:48:46;;;;;;;8.43;7.00;;;9.00;43.90;;;;;;10355035;28;20222;-74
2024/01/06 07:53:50;;;;;;;7.13;5.37;;;9.00;43.80;;;;;;10349683;28;20222;-74
2024/01/06 07:58:55;;;;;;;5.07;3.40;;;9.00;44.00;;;;;;10352274;28;20792;-74
2024/01/06 08:03:58;;;;;;;5.07;3.60;;;9.00;44.10;;;;;;10351284;28;20269;-74
2024/01/06 08:09:03;;;;;;;4.13;2.60;;;9.00;44.00;;;;;;10349496;28;20656;-74
2024/01/06 08:14:07;;;;;;;7.10;6.40;;;9.00;43.90;;;;;;10352645;28;20234;-74
2024/01/06 08:19:11;;;;;;;5.93;5.37;;;9.00;44.10;;;;;;10352943;28;20226;-74
2024/01/06 08:24:14;;;;;;;6.80;5.83;;;9.00;44.00;;;;;;10351753;28;20226;-74
2024/01/06 08:29:19;;;;;;;5.50;3.90;;;9.00;44.10;;;;;;10345297;28;20286;-74
2024/01/06 08:34:23;;;;;;;3.60;2.80;;;9.00;44.40;;;;;;10347122;28;20227;-74
2024/01/06 08:39:26;;;;;;;4.03;2.77;;;9.10;44.20;;;;;;10346732;28;20235;-74
2024/01/06 08:44:31;;;;;;;5.50;2.57;;;9.10;44.10;;;;;;10346022;28;20234;-74
2024/01/06 08:49:34;;;;;;;3.33;2.50;;;9.00;44.30;;;;;;10348749;28;20245;-74
2024/01/06 08:54:38;;;;;;;4.30;2.90;;;9.00;44.20;;;;;;10344991;28;20238;-74
2024/01/06 08:59:42;;;;;;;2.73;2.50;;;9.10;44.30;;;;;;10346512;28;20234;-74
2024/01/06 09:04:46;;;;;;;3.97;3.03;;;9.10;44.40;;;;;;10352899;28;20244;-74
2024/01/06 09:09:49;;;;;;;5.87;4.80;;;9.10;44.30;;;;;;10355284;28;20313;-74
2024/01/06 09:14:53;;;;;;;5.57;4.50;;;9.20;44.20;;;;;;10350797;28;20315;-74
2024/01/06 09:19:56;;;;;;;5.13;4.00;;;9.20;44.30;;;;;;10351618;28;20237;-74
2024/01/06 09:25:00;;;;;;;3.37;3.07;;;9.20;44.10;;;;;;10348549;28;20265;-74
2024/01/06 09:30:06;;;;;;;6.30;4.63;;;9.20;44.10;;;;;;10351142;28;20356;-74
2024/01/06 09:35:09;;;;;;;12.70;6.30;;;9.20;44.20;;;;;;10348092;28;20632;-74
2024/01/06 09:40:14;;;;;;;5.97;4.17;;;9.20;43.90;;;;;;10347209;28;20249;-74
2024/01/06 09:45:20;;;;;;;6.67;5.10;;;9.20;44.20;;;;;;10350051;28;20222;-74
2024/01/06 09:50:23;;;;;;;43.40;22.60;;;9.20;44.30;;;;;;10341337;28;20588;-74
2024/01/06 09:55:27;;;;;;;12.67;8.37;;;9.20;44.20;;;;;;10350591;28;20598;-74
2024/01/06 10:00:32;;;;;;;7.70;5.13;;;9.30;44.30;;;;;;10342989;28;20355;-74
2024/01/06 10:05:35;;;;;;;8.00;4.37;;;9.30;44.20;;;;;;10348234;28;20262;-74
2024/01/06 10:10:39;;;;;;;7.43;4.30;;;9.30;44.10;;;;;;10345125;28;20246;-74
2024/01/06 10:15:43;;;;;;;4.97;4.10;;;9.20;44.00;;;;;;10347796;28;20733;-74
2024/01/06 10:20:47;;;;;;;4.97;3.93;;;9.20;44.30;;;;;;10341905;28;20230;-74
2024/01/06 10:25:53;;;;;;;5.03;3.90;;;9.20;44.10;;;;;;10344134;28;20230;-74
2024/01/06 10:31:01;;;;;;;4.40;3.60;;;9.10;44.40;;;;;;10344777;28;20288;-74
2024/01/06 10:36:06;;;;;;;4.00;3.60;;;9.00;44.30;;;;;;10345740;28;20234;-74
2024/01/06 10:41:10;;;;;;;4.60;3.83;;;9.00;44.30;;;;;;10341751;28;20674;-74
2024/01/06 10:46:16;;;;;;;4.00;3.10;;;9.00;44.20;;;;;;10342430;28;20301;-74
2024/01/06 10:51:22;;;;;;;5.00;3.93;;;9.00;44.60;;;;;;10342888;28;20227;-74
2024/01/06 10:56:26;;;;;;;3.83;3.43;;;9.00;44.50;;;;;;10344873;28;20230;-74
2024/01/06 11:01:31;;;;;;;4.87;3.90;;;9.00;44.40;;;;;;10343096;28;20242;-76
2024/01/06 11:06:35;;;;;;;4.67;3.93;;;9.10;44.50;;;;;;10348084;28;20226;-76
2024/01/06 11:11:40;;;;;;;5.37;4.00;;;9.10;44.40;;;;;;10341910;28;20779;-76
2024/01/06 11:16:44;;;;;;;4.23;3.80;;;9.10;44.50;;;;;;10353889;28;20244;-76
2024/01/06 11:21:48;;;;;;;4.43;3.40;;;9.10;44.70;;;;;;10353368;28;20240;-76
2024/01/06 11:26:52;;;;;;;4.07;3.67;;;9.20;44.50;;;;;;10352784;28;20261;-76
2024/01/06 11:32:20;;;;;;;4.63;4.17;;;9.20;44.60;;;;;;10352322;28;20322;-76
2024/01/06 11:37:37;;;;;;;5.50;4.20;;;9.30;45.10;;;;;;10357016;28;20230;-76
2024/01/06 11:42:42;;;;;;;6.17;4.23;;;9.30;44.70;;;;;;10353177;28;20237;-76
2024/01/06 11:47:49;;;;;;;4.43;3.60;;;9.30;44.60;;;;;;10349146;28;20234;-76
2024/01/06 11:52:55;;;;;;;4.87;3.90;;;9.30;44.50;;;;;;10360274;28;20230;-76
2024/01/06 11:58:01;;;;;;;5.27;4.57;;;9.30;44.10;;;;;;10356817;28;20983;-76
2024/01/06 12:03:06;;;;;;;4.90;3.80;;;9.30;44.00;;;;;;10351579;28;20237;-76
2024/01/06 12:08:09;;;;;;;4.57;4.17;;;9.30;44.20;;;;;;10341913;28;20222;-76
2024/01/06 12:13:14;;;;;;;4.90;3.90;;;9.30;44.00;;;;;;10355735;28;20250;-76
2024/01/06 12:18:22;;;;;;;5.17;3.80;;;9.20;44.00;;;;;;10352461;28;20230;-76
2024/01/06 12:23:27;;;;;;;5.10;3.50;;;9.30;44.30;;;;;;10339304;28;20235;-76
2024/01/06 12:28:30;;;;;;;5.63;3.80;;;9.20;44.00;;;;;;10357082;28;20246;-76
2024/01/06 12:33:37;;;;;;;4.27;3.63;;;9.30;44.20;;;;;;10355916;28;20229;-76
2024/01/06 12:38:42;;;;;;;5.67;3.67;;;9.30;44.30;;;;;;10356041;28;20231;-76
2024/01/06 12:43:46;;;;;;;4.40;3.20;;;9.30;43.80;;;;;;10356427;28;20323;-76
2024/01/06 12:48:50;;;;;;;3.97;3.50;;;9.30;43.80;;;;;;10357782;28;20238;-77
2024/01/06 12:53:54;;;;;;;4.10;3.50;;;9.30;44.00;;;;;;10357802;28;20646;-75
2024/01/06 12:58:57;;;;;;;4.13;3.30;;;9.30;44.00;;;;;;10355798;28;20270;-76
2024/01/06 13:04:01;;;;;;;3.87;3.30;;;9.20;43.90;;;;;;10347339;28;20222;-76
2024/01/06 13:09:06;;;;;;;3.63;3.27;;;9.20;44.00;;;;;;10354104;28;20317;-76
2024/01/06 13:14:09;;;;;;;5.97;4.60;;;9.20;44.00;;;;;;10336658;28;20238;-76
2024/01/06 13:19:14;;;;;;;4.93;3.60;;;9.20;44.00;;;;;;10345324;28;20240;-76
2024/01/06 13:24:17;;;;;;;4.43;3.60;;;9.30;44.30;;;;;;10351197;28;20234;-75
2024/01/06 13:29:20;;;;;;;4.83;3.37;;;9.30;44.10;;;;;;10351704;28;20262;-76
2024/01/06 13:34:25;;;;;;;5.73;3.40;;;9.30;44.10;;;;;;10353256;28;20606;-76
2024/01/06 13:39:28;;;;;;;4.37;3.43;;;9.30;44.20;;;;;;10345284;28;20233;-76
2024/01/06 13:44:31;;;;;;;3.67;3.37;;;9.40;44.20;;;;;;10350852;28;20234;-76
2024/01/06 13:49:36;;;;;;;4.20;3.57;;;9.40;44.00;;;;;;10345331;28;20230;-76
2024/01/06 13:54:39;;;;;;;4.53;3.20;;;9.40;44.10;;;;;;10348997;28;20237;-76
2024/01/06 13:59:42;;;;;;;3.93;3.50;;;9.50;44.00;;;;;;10315660;28;20283;-76
2024/01/06 14:04:47;;;;;;;3.77;3.20;;;9.50;43.90;;;;;;10351142;28;20696;-76
2024/01/06 14:09:51;;;;;;;3.30;3.00;;;9.50;43.90;;;;;;10349611;28;20297;-76
2024/01/06 14:14:54;;;;;;;4.53;3.30;;;9.50;43.90;;;;;;10349468;28;20238;-76
2024/01/06 14:19:59;;;;;;;3.53;3.00;;;9.50;43.70;;;;;;10350846;28;20326;-76
2024/01/06 14:25:02;;;;;;;3.60;2.80;;;9.40;43.60;;;;;;10348461;28;20256;-76
2024/01/06 14:30:09;;;;;;;5.67;4.83;;;9.40;43.60;;;;;;10352088;28;20284;-76
2024/01/06 14:35:16;;;;;;;3.40;3.10;;;9.40;43.80;;;;;;10348495;28;20238;-75
2024/01/06 14:40:19;;;;;;;3.27;2.97;;;9.30;43.60;;;;;;10315684;28;20317;-75
2024/01/06 14:45:23;;;;;;;3.43;2.60;;;9.30;43.30;;;;;;10340038;28;20234;-76
2024/01/06 14:50:27;;;;;;;2.73;2.53;;;9.20;43.30;;;;;;10345207;28;21674;-76
2024/01/06 14:55:30;;;;;;;3.37;2.90;;;9.20;43.50;;;;;;10348014;28;20284;-75
2024/01/06 15:00:33;;;;;;;2.67;2.43;;;9.10;43.30;;;;;;10347242;28;20244;-76
2024/01/06 15:05:38;;;;;;;3.53;2.37;;;9.10;43.20;;;;;;10343360;28;20234;-76
2024/01/06 15:10:41;;;;;;;4.00;2.70;;;9.10;43.30;;;;;;10316262;28;20245;-76
2024/01/06 15:15:45;;;;;;;3.50;2.70;;;9.10;43.30;;;;;;10345924;28;20824;-76
2024/01/06 15:20:50;;;;;;;3.23;2.90;;;9.20;43.40;;;;;;10347963;28;20249;-76
2024/01/06 15:25:53;;;;;;;2.83;2.63;;;9.20;43.50;;;;;;10342439;28;20804;-76
2024/01/06 15:30:57;;;;;;;4.73;2.87;;;9.20;43.40;;;;;;10346211;28;20233;-76
2024/01/06 15:36:02;;;;;;;4.50;2.90;;;9.20;43.50;;;;;;10346159;28;20222;-76
2024/01/06 15:41:06;;;;;;;5.00;4.50;;;9.20;43.60;;;;;;10348561;28;20230;-76
2024/01/06 15:46:09;;;;;;;3.70;3.30;;;9.20;43.50;;;;;;10343568;28;20223;-76
2024/01/06 15:51:14;;;;;;;5.13;4.07;;;9.20;43.40;;;;;;10347510;28;20262;-76
2024/01/06 15:56:18;;;;;;;5.67;4.63;;;9.20;43.60;;;;;;10345665;28;20239;-76
2024/01/06 16:01:22;;;;;;;4.23;3.83;;;9.20;43.40;;;;;;10341776;28;20241;-76
2024/01/06 16:06:26;;;;;;;4.83;4.37;;;9.20;43.30;;;;;;10344479;28;22752;-76
2024/01/06 16:11:30;;;;;;;6.90;6.07;;;9.10;43.20;;;;;;10344975;28;20305;-74
2024/01/06 16:16:33;;;;;;;7.53;6.77;;;9.10;43.30;;;;;;10344914;28;20222;-74
2024/01/06 16:21:37;;;;;;;13.03;11.53;;;9.10;43.30;;;;;;10346098;28;20235;-74
2024/01/06 16:26:41;;;;;;;8.60;7.50;;;9.10;43.40;;;;;;10350747;28;20227;-74
2024/01/06 16:31:44;;;;;;;8.93;7.83;;;9.00;43.40;;;;;;10345499;28;20235;-74
2024/01/06 16:36:49;;;;;;;17.17;15.37;;;9.00;43.50;;;;;;10341799;28;20228;-74
2024/01/06 16:41:52;;;;;;;10.03;7.97;;;9.00;43.70;;;;;;10346993;28;20227;-74
2024/01/06 16:46:58;;;;;;;6.33;5.60;;;9.00;43.70;;;;;;10343909;28;21033;-74
2024/01/06 16:52:02;;;;;;;6.63;6.03;;;9.00;43.70;;;;;;10346333;28;20241;-74
2024/01/06 16:57:06;;;;;;;6.50;5.90;;;9.00;43.80;;;;;;10343335;28;20227;-74
2024/01/06 17:02:09;;;;;;;6.60;6.00;;;9.00;43.80;;;;;;10343081;28;20235;-74
2024/01/06 17:07:14;;;;;;;5.43;4.93;;;9.00;43.80;;;;;;10344662;28;20314;-74
2024/01/06 17:12:21;;;;;;;6.00;5.50;;;9.00;43.80;;;;;;10345137;28;20304;-74
2024/01/06 17:17:25;;;;;;;5.33;4.93;;;9.00;43.80;;;;;;10344969;28;20234;-74
2024/01/06 17:22:29;;;;;;;5.50;4.97;;;9.00;43.70;;;;;;10342307;28;20301;-74
2024/01/06 17:27:33;;;;;;;6.33;5.67;;;9.00;43.60;;;;;;10348502;28;20317;-74
2024/01/06 17:32:36;;;;;;;5.53;4.90;;;8.90;43.30;;;;;;10345857;28;20227;-74
2024/01/06 17:37:41;;;;;;;5.97;5.10;;;8.90;43.30;;;;;;10347939;28;20230;-74
2024/01/06 17:42:44;;;;;;;6.20;5.20;;;8.90;43.40;;;;;;10344838;28;20234;-74
2024/01/06 17:47:49;;;;;;;5.60;5.10;;;8.90;43.50;;;;;;10348107;28;20231;-74
2024/01/06 17:52:55;;;;;;;6.60;6.03;;;8.90;43.70;;;;;;10345640;28;20226;-74
2024/01/06 17:57:58;;;;;;;7.83;7.07;;;8.80;43.70;;;;;;10344675;28;21212;-74
2024/01/06 18:03:03;;;;;;;11.40;9.53;;;8.80;43.60;;;;;;10348471;28;20724;-74
2024/01/06 18:08:07;;;;;;;6.97;6.27;;;8.80;43.60;;;;;;10343749;28;20227;-74
2024/01/06 18:13:10;;;;;;;6.03;5.43;;;8.80;43.70;;;;;;10341102;28;20305;-73
2024/01/06 18:18:14;;;;;;;9.83;8.67;;;8.80;43.60;;;;;;10341073;28;20268;-73
2024/01/06 18:23:18;;;;;;;14.43;12.13;;;8.80;43.70;;;;;;10346886;28;20325;-73
2024/01/06 18:28:24;;;;;;;7.30;6.60;;;8.80;43.80;;;;;;10342461;28;20318;-73
2024/01/06 18:33:27;;;;;;;6.40;5.80;;;8.80;43.70;;;;;;10337067;28;20230;-73
2024/01/06 18:38:31;;;;;;;5.77;5.23;;;8.70;43.70;;;;;;10340218;28;20775;-73
2024/01/06 18:43:34;;;;;;;6.47;5.87;;;8.70;43.80;;;;;;10342386;28;20238;-73
2024/01/06 18:48:38;;;;;;;6.57;5.97;;;8.70;43.80;;;;;;10341557;28;20240;-73
2024/01/06 18:53:43;;;;;;;6.73;6.13;;;8.70;43.90;;;;;;10340874;28;20222;-73
2024/01/06 18:58:46;;;;;;;6.93;5.60;;;8.70;44.00;;;;;;10340694;28;20578;-73
2024/01/06 19:03:50;;;;;;;6.03;5.43;;;8.70;43.90;;;;;;10341597;28;21016;-74
2024/01/06 19:08:55;;;;;;;6.40;5.70;;;8.70;43.90;;;;;;10341871;28;20274;-73
2024/01/06 19:13:58;;;;;;;6.80;6.10;;;8.70;43.90;;;;;;10339611;28;20234;-73
2024/01/06 19:19:01;;;;;;;6.37;5.77;;;8.70;43.90;;;;;;10345574;28;20268;-73
2024/01/06 19:24:08;;;;;;;6.10;5.50;;;8.70;43.90;;;;;;10343972;28;20238;-73
2024/01/06 19:29:11;;;;;;;7.60;6.80;;;8.70;44.10;;;;;;10345475;28;20317;-73
2024/01/06 19:34:14;;;;;;;6.90;6.20;;;8.70;44.10;;;;;;10343996;28;20232;-73
2024/01/06 19:39:19;;;;;;;7.53;6.13;;;8.70;44.10;;;;;;10346181;28;20250;-73
2024/01/06 19:44:22;;;;;;;6.70;6.10;;;8.70;44.20;;;;;;10352216;28;20238;-73
2024/01/06 19:49:25;;;;;;;6.80;6.13;;;8.70;44.10;;;;;;10348925;28;20242;-73
2024/01/06 19:54:32;;;;;;;6.83;6.23;;;8.70;44.10;;;;;;10350861;28;20230;-73
2024/01/06 19:59:35;;;;;;;7.10;6.40;;;8.70;44.20;;;;;;10347039;28;20241;-73
2024/01/06 20:04:38;;;;;;;6.50;6.00;;;8.70;44.10;;;;;;10349799;28;20741;-73
2024/01/06 20:09:46;;;;;;;7.10;6.40;;;8.70;44.00;;;;;;10349553;28;20243;-73
2024/01/06 20:14:51;;;;;;;6.93;6.33;;;8.70;44.30;;;;;;10348109;28;20261;-73
2024/01/06 20:19:54;;;;;;;8.20;7.47;;;8.70;44.10;;;;;;10345238;28;20230;-73
2024/01/06 20:25:01;;;;;;;9.97;8.97;;;8.70;44.10;;;;;;10347531;28;20321;-73
2024/01/06 20:30:05;;;;;;;10.07;9.07;;;8.70;44.20;;;;;;10347359;28;20237;-73
2024/01/06 20:35:09;;;;;;;7.20;6.50;;;8.70;44.10;;;;;;10352415;28;20230;-73
2024/01/06 20:40:14;;;;;;;7.00;6.27;;;8.70;44.40;;;;;;10344592;28;20744;-73
2024/01/06 20:45:18;;;;;;;6.90;6.30;;;8.70;44.20;;;;;;10341710;28;20223;-73
2024/01/06 20:50:21;;;;;;;6.67;6.17;;;8.70;44.20;;;;;;10349534;28;20258;-73
2024/01/06 20:55:25;;;;;;;7.63;7.00;;;8.70;44.20;;;;;;10349192;28;20306;-73
2024/01/06 21:00:32;;;;;;;7.63;6.43;;;8.70;44.30;;;;;;10340668;28;20231;-73
2024/01/06 21:05:37;;;;;;;7.50;6.73;;;8.70;44.30;;;;;;10342554;28;20230;-73
2024/01/06 21:10:41;;;;;;;7.53;6.83;;;8.70;44.40;;;;;;10341909;28;20234;-73
2024/01/06 21:15:45;;;;;;;6.73;6.03;;;8.70;44.40;;;;;;10349467;28;20237;-73
2024/01/06 21:20:48;;;;;;;7.13;6.43;;;8.70;44.10;;;;;;10347686;28;20230;-73
2024/01/06 21:25:53;;;;;;;6.93;6.30;;;8.70;43.80;;;;;;10345817;28;20230;-73
2024/01/06 21:30:56;;;;;;;6.27;5.60;;;8.70;43.60;;;;;;10346895;28;20745;-73
2024/01/06 21:35:59;;;;;;;7.00;6.30;;;8.60;43.40;;;;;;10344637;28;20225;-73
2024/01/06 21:41:07;;;;;;;8.23;6.20;;;8.50;43.50;;;;;;10344245;28;20599;-73
2024/01/06 21:46:10;;;;;;;8.00;7.20;;;8.50;43.70;;;;;;10347492;28;20228;-73
2024/01/06 21:51:14;;;;;;;7.47;6.77;;;8.40;43.70;;;;;;10345003;28;20767;-73
2024/01/06 21:56:18;;;;;;;7.10;6.40;;;8.40;43.80;;;;;;10345571;28;20226;-74
2024/01/06 22:01:21;;;;;;;6.87;6.17;;;8.30;44.10;;;;;;10342978;28;20671;-73
2024/01/06 22:06:25;;;;;;;6.80;6.20;;;8.20;43.90;;;;;;10345535;28;20310;-73
2024/01/06 22:11:30;;;;;;;6.40;5.90;;;8.20;44.00;;;;;;10342278;28;20234;-73
2024/01/06 22:16:33;;;;;;;6.67;6.07;;;8.10;44.10;;;;;;10341544;28;20235;-73
2024/01/06 22:21:41;;;;;;;6.33;5.73;;;8.10;44.10;;;;;;10339889;28;20241;-73
2024/01/06 22:26:48;;;;;;;6.23;5.63;;;8.10;44.50;;;;;;10341280;28;20238;-73
2024/01/06 22:31:51;;;;;;;6.50;5.90;;;8.10;44.40;;;;;;10341547;28;20607;-73
2024/01/06 22:36:55;;;;;;;5.83;5.33;;;8.00;44.20;;;;;;10342010;28;20602;-73
2024/01/06 22:42:01;;;;;;;6.10;5.50;;;8.00;44.20;;;;;;10337960;28;20227;-73
2024/01/06 22:47:05;;;;;;;5.93;5.43;;;8.00;44.40;;;;;;10342888;28;20238;-73
2024/01/06 22:52:08;;;;;;;5.67;5.17;;;8.00;44.30;;;;;;10343761;28;20226;-73
2024/01/06 22:57:12;;;;;;;5.70;5.20;;;8.00;44.40;;;;;;10340830;28;20246;-73
2024/01/06 23:02:16;;;;;;;5.67;5.17;;;7.90;44.60;;;;;;10341459;28;20230;-73
2024/01/06 23:07:19;;;;;;;5.90;5.37;;;8.00;44.50;;;;;;10340147;28;20226;-73
2024/01/06 23:12:23;;;;;;;6.00;5.50;;;8.00;44.50;;;;;;10338654;28;20693;-74
2024/01/06 23:17:26;;;;;;;5.77;5.27;;;8.00;44.70;;;;;;10336746;28;20227;-73
2024/01/06 23:22:30;;;;;;;6.50;5.63;;;8.00;44.40;;;;;;10341801;28;20583;-73
2024/01/06 23:27:34;;;;;;;5.60;5.10;;;8.00;44.50;;;;;;10337857;28;20358;-73
2024/01/06 23:32:37;;;;;;;5.90;5.27;;;8.00;44.50;;;;;;10338748;28;20314;-73
2024/01/06 23:37:41;;;;;;;5.40;4.93;;;8.00;44.30;;;;;;10339665;28;20721;-73
2024/01/06 23:42:46;;;;;;;5.50;5.00;;;8.00;44.50;;;;;;10341610;28;20838;-73
2024/01/06 23:47:50;;;;;;;5.50;5.10;;;8.00;44.60;;;;;;10338289;28;20274;-73
2024/01/06 23:52:53;;;;;;;6.40;5.53;;;8.00;44.50;;;;;;10344748;28;20237;-73
2024/01/06 23:57:57;;;;;;;6.03;5.43;;;8.00;44.50;;;;;;10343741;28;20310;-73
